createdAt,value
2019-05-12T00:01:59.681Z,28.20
2019-05-12T00:04:29.721Z,27.40
2019-05-12T00:06:59.518Z,31.33
2019-05-12T00:09:29.447Z,24.17
2019-05-12T00:11:59.405Z,22.30
2019-05-12T00:14:29.286Z,22.33
2019-05-12T00:16:59.089Z,24.03
2019-05-12T00:19:30.033Z,29.43
2019-05-12T00:21:59.841Z,24.57
2019-05-12T00:24:29.829Z,24.70
2019-05-12T00:27:02.443Z,24.33
2019-05-12T00:29:32.199Z,22.60
2019-05-12T00:32:01.965Z,25.33
2019-05-12T00:34:31.879Z,26.93
2019-05-12T00:37:01.870Z,22.00
2019-05-12T00:39:31.714Z,26.87
2019-05-12T00:42:01.695Z,26.80
2019-05-12T00:44:31.567Z,23.67
2019-05-12T00:47:01.356Z,22.07
2019-05-12T00:49:31.235Z,24.93
2019-05-12T00:52:01.114Z,22.43
2019-05-12T00:54:31.022Z,25.83
2019-05-12T00:57:00.999Z,23.33
2019-05-12T00:59:30.869Z,22.27
2019-05-12T01:02:00.771Z,22.00
2019-05-12T01:04:30.528Z,22.63
2019-05-12T01:07:00.286Z,21.30
2019-05-12T01:09:30.022Z,21.43
2019-05-12T01:12:00.188Z,20.37
2019-05-12T01:14:29.833Z,20.73
2019-05-12T01:16:59.665Z,19.33
2019-05-12T01:19:29.733Z,18.47
2019-05-12T01:21:59.510Z,19.97
2019-05-12T01:24:29.422Z,19.43
2019-05-12T01:26:59.368Z,18.67
2019-05-12T01:29:29.237Z,18.93
2019-05-12T01:32:23.763Z,16.80
2019-05-12T01:34:53.659Z,18.47
2019-05-12T01:37:23.688Z,18.43
2019-05-12T01:39:59.725Z,17.43
2019-05-12T01:42:28.645Z,16.90
2019-05-12T01:44:58.578Z,18.23
2019-05-12T01:47:29.148Z,19.70
2019-05-12T01:49:59.152Z,18.47
2019-05-12T01:52:29.124Z,18.27
2019-05-12T01:54:59.141Z,19.37
2019-05-12T01:57:29.001Z,19.70
2019-05-12T01:59:58.767Z,19.63
2019-05-12T02:02:28.734Z,19.93
2019-05-12T02:05:08.616Z,20.60
2019-05-12T02:07:55.241Z,19.50
2019-05-12T02:10:28.305Z,21.33
2019-05-12T02:12:59.282Z,21.33
2019-05-12T02:15:29.231Z,20.03
2019-05-12T02:17:59.835Z,21.87
2019-05-12T02:20:29.627Z,22.23
2019-05-12T02:22:59.549Z,21.13
2019-05-12T02:25:29.519Z,19.10
2019-05-12T02:27:59.376Z,25.83
2019-05-12T02:30:30.687Z,27.63
2019-05-12T02:33:00.608Z,22.00
2019-05-12T02:35:30.478Z,25.30
2019-05-12T02:38:00.407Z,25.17
2019-05-12T02:40:30.259Z,23.37
2019-05-12T02:43:00.120Z,28.57
2019-05-12T02:45:30.036Z,24.40
2019-05-12T02:48:01.002Z,27.77
2019-05-12T02:50:37.133Z,31.33
2019-05-12T02:53:07.984Z,28.73
2019-05-12T02:55:39.305Z,29.67
2019-05-12T02:58:15.011Z,24.07
2019-05-12T03:00:45.489Z,23.50
2019-05-12T03:03:17.549Z,22.07
2019-05-12T03:05:48.386Z,24.20
2019-05-12T03:08:19.985Z,20.17
2019-05-12T03:10:54.631Z,20.17
2019-05-12T03:13:25.269Z,17.27
2019-05-12T03:15:55.083Z,16.10
2019-05-12T03:18:25.459Z,16.17
2019-05-12T03:20:55.209Z,14.87
2019-05-12T03:23:25.269Z,16.67
2019-05-12T03:25:55.142Z,15.17
2019-05-12T03:28:26.194Z,12.63
2019-05-12T03:30:58.400Z,12.93
2019-05-12T03:33:36.010Z,12.17
2019-05-12T03:36:01.442Z,13.33
2019-05-12T03:38:31.464Z,13.00
2019-05-12T03:41:01.214Z,13.57
2019-05-12T03:43:31.007Z,13.27
2019-05-12T03:46:00.867Z,13.27
2019-05-12T03:48:30.847Z,13.17
2019-05-12T03:51:00.665Z,12.50
2019-05-12T03:53:30.624Z,12.80
2019-05-12T03:56:00.326Z,12.87
2019-05-12T03:58:30.196Z,12.57
2019-05-12T04:01:00.139Z,12.93
2019-05-12T04:03:30.036Z,12.87
2019-05-12T04:05:59.932Z,13.17
2019-05-12T04:08:29.895Z,12.63
2019-05-12T04:10:59.580Z,13.03
2019-05-12T04:13:29.505Z,12.53
2019-05-12T04:15:59.311Z,14.00
2019-05-12T04:18:29.336Z,10.93
2019-05-12T04:20:59.199Z,10.70
2019-05-12T04:23:29.178Z,10.43
2019-05-12T04:26:08.492Z,9.17
2019-05-12T04:28:30.642Z,10.40
2019-05-12T04:31:00.390Z,13.50
2019-05-12T04:33:30.165Z,14.03
2019-05-12T04:36:01.351Z,13.17
2019-05-12T04:38:31.211Z,14.67
2019-05-12T04:41:01.134Z,12.43
2019-05-12T04:43:31.106Z,12.87
2019-05-12T04:46:01.227Z,13.57
2019-05-12T04:48:31.104Z,18.73
2019-05-12T04:51:01.122Z,30.10
2019-05-12T04:53:31.109Z,21.57
2019-05-12T04:56:11.406Z,14.77
2019-05-12T04:58:35.076Z,16.50
2019-05-12T05:01:06.470Z,15.00
2019-05-12T05:03:36.619Z,10.17
2019-05-12T05:06:06.531Z,9.63
2019-05-12T05:08:36.295Z,9.33
2019-05-12T05:11:06.200Z,8.67
2019-05-12T05:13:39.464Z,8.93
2019-05-12T05:16:07.584Z,9.70
2019-05-12T05:18:40.610Z,9.40
2019-05-12T05:21:09.019Z,9.53
2019-05-12T05:23:38.927Z,8.83
2019-05-12T05:26:20.981Z,8.87
2019-05-12T05:28:40.195Z,8.90
2019-05-12T05:31:10.109Z,9.87
2019-05-12T05:33:40.218Z,8.97
2019-05-12T05:36:15.118Z,9.53
2019-05-12T05:38:43.618Z,12.20
2019-05-12T05:41:13.518Z,16.07
2019-05-12T05:43:43.918Z,14.27
2019-05-12T05:46:14.799Z,16.03
2019-05-12T05:48:44.668Z,13.73
2019-05-12T05:51:14.594Z,14.07
2019-05-12T05:53:49.800Z,16.63
2019-05-12T05:56:18.390Z,17.23
2019-05-12T05:58:51.950Z,18.07
2019-05-12T06:01:19.737Z,17.60
2019-05-12T06:03:49.495Z,17.97
2019-05-12T06:06:19.460Z,15.17
2019-05-12T06:09:07.705Z,13.80
2019-05-12T06:11:37.413Z,11.20
2019-05-12T06:14:11.403Z,12.20
2019-05-12T06:16:38.956Z,11.57
2019-05-12T06:19:08.874Z,12.57
2019-05-12T06:21:40.011Z,9.17
2019-05-12T06:24:15.807Z,7.77
2019-05-12T06:26:54.680Z,7.67
2019-05-12T06:29:20.265Z,8.53
2019-05-12T06:31:44.586Z,8.40
2019-05-12T06:34:20.526Z,8.73
2019-05-12T06:36:45.839Z,8.73
2019-05-12T06:39:20.508Z,8.93
2019-05-12T06:41:47.241Z,8.03
2019-05-12T06:44:19.333Z,8.13
2019-05-12T06:46:53.503Z,8.33
2019-05-12T06:49:20.367Z,10.20
2019-05-12T06:51:53.689Z,10.47
2019-05-12T06:54:24.612Z,10.20
2019-05-12T06:57:10.252Z,9.30
2019-05-12T06:59:26.569Z,8.60
2019-05-12T07:02:00.515Z,7.90
2019-05-12T07:04:28.085Z,8.77
2019-05-12T07:07:00.694Z,8.93
2019-05-12T07:09:32.638Z,9.10
2019-05-12T07:12:06.302Z,8.07
2019-05-12T07:14:34.535Z,9.57
2019-05-12T07:17:10.512Z,8.40
2019-05-12T07:19:43.594Z,9.13
2019-05-12T07:22:22.440Z,8.60
2019-05-12T07:24:50.029Z,7.37
2019-05-12T07:27:17.595Z,7.07
2019-05-12T07:29:47.387Z,5.53
2019-05-12T07:32:21.751Z,5.07
2019-05-12T07:34:50.393Z,5.10
2019-05-12T07:37:20.805Z,5.70
2019-05-12T07:39:53.857Z,5.97
2019-05-12T07:42:31.138Z,5.07
2019-05-12T07:45:03.990Z,4.60
2019-05-12T07:47:33.907Z,4.90
2019-05-12T07:50:04.458Z,4.67
2019-05-12T07:52:35.506Z,4.43
2019-05-12T07:55:05.317Z,3.90
2019-05-12T07:57:45.146Z,4.20
2019-05-12T08:00:11.362Z,4.37
2019-05-12T08:02:38.619Z,7.90
2019-05-12T08:05:10.920Z,5.53
2019-05-12T08:07:40.418Z,4.80
2019-05-12T08:10:15.889Z,4.83
2019-05-12T08:12:44.502Z,5.70
2019-05-12T08:15:14.885Z,5.10
2019-05-12T08:17:49.255Z,5.70
2019-05-12T08:20:17.091Z,5.20
2019-05-12T08:22:46.911Z,8.47
2019-05-12T08:25:18.805Z,6.17
2019-05-12T08:27:51.312Z,8.40
2019-05-12T08:30:24.267Z,6.80
2019-05-12T08:33:02.502Z,5.07
2019-05-12T08:35:30.631Z,6.80
2019-05-12T08:37:57.437Z,5.80
2019-05-12T08:40:27.356Z,5.90
2019-05-12T08:42:59.393Z,6.00
2019-05-12T08:45:33.970Z,5.80
2019-05-12T08:48:03.662Z,5.93
2019-05-12T08:50:36.014Z,5.40
2019-05-12T08:53:05.083Z,5.17
2019-05-12T08:55:36.021Z,5.90
2019-05-12T08:58:05.974Z,6.40
2019-05-12T09:00:46.591Z,6.90
2019-05-12T09:03:14.132Z,5.47
2019-05-12T09:05:44.642Z,5.03
2019-05-12T09:08:14.644Z,4.93
2019-05-12T09:10:45.178Z,4.93
2019-05-12T09:13:15.231Z,4.40
2019-05-12T09:15:45.137Z,4.80
2019-05-12T09:18:14.958Z,4.40
2019-05-12T09:20:50.718Z,4.97
2019-05-12T09:23:16.352Z,5.20
2019-05-12T09:25:48.395Z,4.97
2019-05-12T09:28:17.851Z,4.67
2019-05-12T09:30:49.419Z,5.37
2019-05-12T09:33:21.600Z,4.90
2019-05-12T09:35:50.855Z,4.60
2019-05-12T09:38:23.267Z,5.77
2019-05-12T09:40:55.079Z,6.03
2019-05-12T09:43:23.948Z,5.47
2019-05-12T09:45:56.332Z,5.17
2019-05-12T09:48:25.458Z,5.23
2019-05-12T09:51:00.235Z,5.03
2019-05-12T09:53:26.882Z,5.80
2019-05-12T09:55:58.589Z,5.50
2019-05-12T09:58:28.364Z,5.57
2019-05-12T10:00:58.310Z,5.90
2019-05-12T10:03:30.968Z,5.07
2019-05-12T10:05:59.969Z,5.70
2019-05-12T10:08:35.908Z,5.37
2019-05-12T10:11:03.629Z,5.97
2019-05-12T10:13:32.880Z,5.17
2019-05-12T10:16:07.066Z,5.47
2019-05-12T10:18:34.252Z,5.57
2019-05-12T10:21:04.078Z,5.90
2019-05-12T10:23:34.115Z,5.20
2019-05-12T10:26:09.484Z,6.40
2019-05-12T10:28:35.560Z,6.40
2019-05-12T10:31:05.352Z,7.07
2019-05-12T10:33:35.341Z,5.30
2019-05-12T10:36:08.426Z,6.50
2019-05-12T10:38:37.582Z,7.13
2019-05-12T10:41:07.545Z,6.27
2019-05-12T10:43:37.229Z,5.73
2019-05-12T10:46:07.029Z,6.33
2019-05-12T10:48:36.910Z,5.63
2019-05-12T10:51:06.838Z,5.83
2019-05-12T10:53:36.683Z,5.50
2019-05-12T10:56:06.493Z,6.17
2019-05-12T10:58:36.471Z,5.77
2019-05-12T11:01:08.508Z,5.57
2019-05-12T11:03:42.954Z,5.23
2019-05-12T11:06:09.598Z,5.17
2019-05-12T11:08:41.358Z,5.30
2019-05-12T11:11:10.613Z,5.10
2019-05-12T11:13:48.260Z,5.60
2019-05-12T11:16:32.193Z,5.13
2019-05-12T11:19:08.771Z,5.83
2019-05-12T11:21:34.164Z,5.37
2019-05-12T11:24:05.232Z,5.40
2019-05-12T11:26:35.000Z,5.50
2019-05-12T11:29:04.836Z,5.90
2019-05-12T11:31:34.754Z,4.90
2019-05-12T11:34:04.976Z,5.03
2019-05-12T11:36:34.948Z,5.50
2019-05-12T11:39:06.544Z,6.17
2019-05-12T11:41:36.355Z,6.37
2019-05-12T11:44:07.386Z,6.03
2019-05-12T11:46:37.209Z,6.60
2019-05-12T11:49:09.499Z,6.43
2019-05-12T11:51:38.706Z,5.97
2019-05-12T11:54:10.498Z,6.73
2019-05-12T11:56:45.721Z,6.40
2019-05-12T11:59:13.852Z,7.13
2019-05-12T12:01:47.455Z,7.00
2019-05-12T12:04:15.757Z,8.00
2019-05-12T12:06:46.826Z,8.50
2019-05-12T12:09:18.838Z,8.80
2019-05-12T12:11:48.331Z,8.27
2019-05-12T12:14:18.186Z,9.10
2019-05-12T12:16:50.400Z,9.47
2019-05-12T12:19:20.186Z,8.83
2019-05-12T12:21:50.247Z,9.37
2019-05-12T12:24:21.406Z,9.03
2019-05-12T12:26:53.629Z,9.37
2019-05-12T12:29:24.120Z,8.97
2019-05-12T12:31:54.831Z,10.53
2019-05-12T12:34:29.829Z,9.77
2019-05-12T12:36:56.347Z,8.50
2019-05-12T12:39:27.390Z,7.93
2019-05-12T12:42:00.373Z,9.73
2019-05-12T12:44:30.002Z,10.37
2019-05-12T12:47:01.927Z,7.87
2019-05-12T12:49:33.941Z,8.10
2019-05-12T12:52:04.669Z,9.60
2019-05-12T12:54:34.375Z,8.23
2019-05-12T12:57:06.525Z,6.63
2019-05-12T12:59:35.996Z,7.70
2019-05-12T13:02:09.187Z,7.80
2019-05-12T13:04:39.574Z,8.07
2019-05-12T13:07:09.075Z,7.67
2019-05-12T13:09:38.890Z,7.77
2019-05-12T13:12:16.054Z,9.07
2019-05-12T13:14:40.196Z,8.83
2019-05-12T13:17:10.091Z,8.90
2019-05-12T13:19:39.793Z,9.27
2019-05-12T13:22:14.947Z,9.30
2019-05-12T13:24:41.160Z,9.23
2019-05-12T13:27:10.870Z,9.70
2019-05-12T13:29:40.856Z,9.43
2019-05-12T13:32:10.697Z,9.87
2019-05-12T13:34:40.613Z,9.77
2019-05-12T13:37:15.588Z,10.17
2019-05-12T13:39:55.217Z,9.10
2019-05-12T13:42:14.875Z,10.83
2019-05-12T13:44:46.035Z,11.40
2019-05-12T13:47:15.872Z,11.70
2019-05-12T13:49:47.593Z,11.03
2019-05-12T13:52:20.296Z,12.17
2019-05-12T13:54:48.664Z,13.93
2019-05-12T13:57:19.911Z,11.87
2019-05-12T13:59:54.277Z,12.43
2019-05-12T14:02:22.288Z,21.13
2019-05-12T14:04:53.572Z,13.80
2019-05-12T14:07:23.706Z,13.33
2019-05-12T14:09:53.500Z,15.83
2019-05-12T14:12:23.363Z,17.83
2019-05-12T14:14:53.232Z,16.57
2019-05-12T14:17:23.594Z,15.07
2019-05-12T14:19:53.429Z,13.20
2019-05-12T14:22:26.377Z,13.60
2019-05-12T14:24:54.640Z,13.43
2019-05-12T14:27:28.608Z,13.43
2019-05-12T14:30:00.275Z,11.93
2019-05-12T14:32:27.680Z,12.53
2019-05-12T14:35:00.632Z,12.67
2019-05-12T14:37:29.009Z,13.50
2019-05-12T14:39:58.773Z,13.57
2019-05-12T14:42:34.711Z,14.23
2019-05-12T14:45:01.394Z,13.60
2019-05-12T14:47:31.279Z,13.60
2019-05-12T14:50:03.764Z,14.47
2019-05-12T14:52:33.283Z,13.57
2019-05-12T14:55:03.556Z,13.53
2019-05-12T14:57:37.518Z,13.97
2019-05-12T15:00:11.288Z,16.37
2019-05-12T15:02:38.965Z,15.50
2019-05-12T15:05:10.871Z,15.40
2019-05-12T15:07:50.660Z,13.50
2019-05-12T15:10:14.889Z,15.43
2019-05-12T15:12:44.685Z,17.10
2019-05-12T15:15:20.658Z,19.57
2019-05-12T15:17:47.475Z,20.53
2019-05-12T15:20:17.451Z,18.77
2019-05-12T15:22:51.514Z,19.13
2019-05-12T15:25:18.859Z,19.63
2019-05-12T15:27:48.644Z,20.77
2019-05-12T15:30:23.556Z,19.80
2019-05-12T15:32:50.639Z,20.73
2019-05-12T15:35:20.386Z,19.90
2019-05-12T15:37:52.025Z,19.97
2019-05-12T15:40:23.673Z,20.67
2019-05-12T15:42:54.992Z,19.33
2019-05-12T15:45:24.871Z,20.43
2019-05-12T15:47:54.817Z,19.70
2019-05-12T15:50:26.148Z,19.40
2019-05-12T15:52:56.212Z,19.53
2019-05-12T15:55:32.949Z,19.60
2019-05-12T15:57:57.528Z,18.17
2019-05-12T16:00:27.248Z,17.37
2019-05-12T16:02:58.432Z,17.70
2019-05-12T16:05:30.911Z,18.17
2019-05-12T16:07:59.563Z,17.87
2019-05-12T16:10:29.625Z,16.73
2019-05-12T16:12:59.495Z,14.57
2019-05-12T16:15:34.045Z,17.33
2019-05-12T16:18:05.666Z,18.10
2019-05-12T16:20:35.013Z,15.90
2019-05-12T16:23:05.004Z,17.47
2019-05-12T16:25:34.894Z,18.20
2019-05-12T16:28:07.762Z,18.70
2019-05-12T16:30:36.561Z,16.80
2019-05-12T16:33:06.411Z,16.23
2019-05-12T16:35:36.386Z,15.80
2019-05-12T16:38:17.979Z,16.37
2019-05-12T16:40:39.540Z,15.13
2019-05-12T16:43:09.901Z,16.83
2019-05-12T16:45:39.768Z,16.23
2019-05-12T16:48:26.596Z,16.53
2019-05-12T16:50:43.663Z,16.23
2019-05-12T16:53:21.345Z,15.57
2019-05-12T16:55:46.482Z,15.43
2019-05-12T16:58:15.615Z,16.60
2019-05-12T17:00:49.365Z,16.07
2019-05-12T17:03:18.337Z,16.37
2019-05-12T17:05:50.191Z,15.30
2019-05-12T17:08:20.086Z,16.47
2019-05-12T17:11:03.147Z,16.47
2019-05-12T17:13:23.579Z,16.10
2019-05-12T17:15:55.400Z,17.17
2019-05-12T17:18:25.320Z,17.60
2019-05-12T17:20:55.187Z,17.90
2019-05-12T17:23:25.143Z,17.93
2019-05-12T17:25:56.247Z,18.00
2019-05-12T17:28:26.147Z,16.77
2019-05-12T17:30:56.002Z,16.70
2019-05-12T17:33:27.753Z,17.50
2019-05-12T17:36:02.295Z,16.67
2019-05-12T17:38:30.168Z,17.73
2019-05-12T17:41:00.892Z,18.80
2019-05-12T17:43:30.805Z,18.43
2019-05-12T17:46:04.319Z,18.90
2019-05-12T17:48:37.435Z,18.33
2019-05-12T17:51:05.376Z,18.83
2019-05-12T17:53:36.189Z,19.23
2019-05-12T17:56:06.854Z,17.63
2019-05-12T17:58:44.179Z,17.90
2019-05-12T18:01:08.212Z,18.43
2019-05-12T18:03:44.812Z,19.20
2019-05-12T18:06:11.327Z,17.93
2019-05-12T18:08:44.111Z,19.40
2019-05-12T18:11:16.099Z,19.00
2019-05-12T18:13:46.329Z,19.37
2019-05-12T18:16:21.852Z,20.43
2019-05-12T18:18:48.680Z,18.77
2019-05-12T18:21:22.397Z,17.03
2019-05-12T18:23:53.569Z,18.43
2019-05-12T18:26:24.661Z,18.30
2019-05-12T18:28:55.545Z,19.90
2019-05-12T18:31:25.550Z,17.23
2019-05-12T18:33:56.954Z,19.07
2019-05-12T18:36:28.053Z,17.80
2019-05-12T18:39:05.652Z,15.93
2019-05-12T18:41:30.210Z,18.30
2019-05-12T18:44:04.495Z,18.07
2019-05-12T18:46:36.096Z,18.40
2019-05-12T18:49:12.240Z,17.43
2019-05-12T18:51:37.586Z,18.37
2019-05-12T18:54:10.186Z,18.67
2019-05-12T18:56:38.897Z,17.27
2019-05-12T18:59:11.740Z,19.87
2019-05-12T19:01:40.718Z,19.10
2019-05-12T19:04:10.439Z,18.10
2019-05-12T19:06:44.002Z,18.03
2019-05-12T19:09:14.182Z,17.50
2019-05-12T19:11:46.583Z,18.27
2019-05-12T19:14:15.749Z,18.07
2019-05-12T19:16:46.888Z,17.93
2019-05-12T19:19:20.017Z,17.80
2019-05-12T19:21:58.501Z,19.30
2019-05-12T19:24:20.200Z,19.03
2019-05-12T19:26:50.133Z,17.60
2019-05-12T19:29:20.065Z,19.33
2019-05-12T19:31:52.561Z,19.53
2019-05-12T19:34:23.410Z,18.90
2019-05-12T19:36:52.860Z,19.50
2019-05-12T19:39:25.418Z,19.17
2019-05-12T19:41:55.509Z,19.23
2019-05-12T19:44:26.578Z,20.40
2019-05-12T19:46:57.823Z,18.97
2019-05-12T19:49:28.417Z,20.30
2019-05-12T19:51:59.229Z,20.43
2019-05-12T19:54:33.770Z,20.90
2019-05-12T19:57:01.930Z,20.23
2019-05-12T19:59:34.013Z,20.80
2019-05-12T20:02:07.860Z,21.20
2019-05-12T20:04:43.131Z,21.03
2019-05-12T20:07:09.296Z,20.23
2019-05-12T20:09:39.197Z,21.17
2019-05-12T20:12:15.559Z,22.17
2019-05-12T20:14:40.609Z,20.97
2019-05-12T20:17:11.777Z,20.67
2019-05-12T20:19:43.610Z,18.73
2019-05-12T20:22:13.797Z,18.53
2019-05-12T20:24:44.377Z,20.50
2019-05-12T20:27:17.140Z,20.23
2019-05-12T20:29:45.824Z,19.37
2019-05-12T20:32:16.378Z,19.93
2019-05-12T20:34:51.781Z,20.63
2019-05-12T20:37:17.956Z,20.17
2019-05-12T20:39:51.131Z,20.10
2019-05-12T20:42:23.635Z,21.40
2019-05-12T20:44:57.813Z,20.17
2019-05-12T20:47:24.980Z,20.37
2019-05-12T20:49:54.901Z,19.70
2019-05-12T20:52:24.703Z,20.43
2019-05-12T20:54:59.596Z,19.97
2019-05-12T20:57:26.078Z,20.87
2019-05-12T21:00:01.617Z,21.17
2019-05-12T21:02:27.411Z,21.17
2019-05-12T21:05:01.160Z,22.23
2019-05-12T21:07:29.969Z,20.63
2019-05-12T21:09:59.928Z,20.97
2019-05-12T21:12:29.832Z,21.07
2019-05-12T21:15:12.614Z,21.23
2019-05-12T21:17:42.423Z,20.13
2019-05-12T21:20:04.483Z,22.17
2019-05-12T21:22:34.370Z,20.80
2019-05-12T21:25:04.350Z,19.07
2019-05-12T21:27:34.086Z,20.40
2019-05-12T21:30:10.125Z,20.90
2019-05-12T21:32:35.722Z,19.63
2019-05-12T21:35:18.098Z,19.77
2019-05-12T21:37:45.392Z,18.77
2019-05-12T21:40:09.075Z,19.13
2019-05-12T21:42:38.945Z,18.87
2019-05-12T21:45:08.951Z,18.53
2019-05-12T21:47:42.910Z,19.27
2019-05-12T21:50:10.521Z,19.40
2019-05-12T21:52:40.348Z,19.47
2019-05-12T21:55:13.468Z,19.27
2019-05-12T21:57:43.766Z,18.67
2019-05-12T22:00:20.338Z,19.37
2019-05-12T22:02:50.078Z,19.70
2019-05-12T22:05:23.719Z,19.13
2019-05-12T22:07:52.661Z,18.40
2019-05-12T22:10:28.971Z,18.00
2019-05-12T22:13:00.423Z,19.07
2019-05-12T22:15:28.753Z,18.20
2019-05-12T22:18:04.652Z,17.40
2019-05-12T22:20:34.603Z,16.90
2019-05-12T22:23:11.531Z,15.60
2019-05-12T22:25:37.054Z,15.73
2019-05-12T22:28:10.039Z,14.23
2019-05-12T22:30:38.485Z,15.93
2019-05-12T22:33:10.726Z,15.60
2019-05-12T22:35:39.744Z,16.13
2019-05-12T22:38:15.814Z,16.13
2019-05-12T22:40:40.864Z,15.53
2019-05-12T22:43:10.785Z,15.73
2019-05-12T22:45:44.418Z,15.83
2019-05-12T22:48:12.002Z,15.73
2019-05-12T22:50:43.518Z,15.67
2019-05-12T22:53:13.726Z,15.33
2019-05-12T22:55:43.524Z,15.57
2019-05-12T22:58:18.308Z,15.77
2019-05-12T23:00:45.157Z,15.40
2019-05-12T23:03:15.393Z,14.73
2019-05-12T23:05:45.098Z,15.57
2019-05-12T23:08:14.959Z,15.23
2019-05-12T23:10:51.430Z,14.17
2019-05-12T23:13:16.591Z,15.33
2019-05-12T23:15:49.358Z,13.97
2019-05-12T23:18:26.886Z,14.33
2019-05-12T23:20:53.982Z,14.60
2019-05-12T23:23:24.360Z,13.97
2019-05-12T23:26:00.219Z,12.80
2019-05-12T23:28:27.019Z,12.33
2019-05-12T23:30:56.848Z,12.00
2019-05-12T23:33:32.073Z,11.17
2019-05-12T23:35:58.426Z,11.03
2019-05-12T23:38:28.233Z,11.00
2019-05-12T23:40:58.153Z,10.43
2019-05-12T23:43:28.130Z,12.17
2019-05-12T23:45:57.989Z,10.17
2019-05-12T23:48:27.900Z,11.93
2019-05-12T23:50:57.685Z,11.10
2019-05-12T23:53:27.621Z,10.83
2019-05-12T23:55:57.474Z,10.67
2019-05-12T23:58:27.412Z,11.03
